Wiscasset, Maine
Current Conditions -  °F | °C
As of 4:53 PM on Wednesday 28 Jan 2015 (Local Time) from KIWI Reporting Station
Clear Clear  
Wind Chill: -5°   Ceiling: Unl
Heat Index: -5°   Visibility: 10mi
Dew Point: -13°   Wind: 3mph
Humidity: 55%   Direction: NA
Pressure: 30.02"   Gusts: NA
Location:  44°N, 69.66°W
Report Text: KIWI 282153Z AUTO VRB03KT 10SM CLR M05/M13 A3002 RMK AO2 SLP167 T10501128
Loading
Personal Weather Stations






























Interactive Weather Map New forecast layout! Learn more

10-Day Weather Forecast

Advertisements
Track Severe Weather on mobile